sensor_id;sensor_type;location;lat;lon;timestamp;P1;durP1;ratioP1;P2;durP2;ratioP2
72060;SDS011;59925;52.136;5.420;2024-02-28T00:00:34;31.52;;;12.80;;
72060;SDS011;59925;52.136;5.420;2024-02-28T00:03:00;30.95;;;12.23;;
72060;SDS011;59925;52.136;5.420;2024-02-28T00:05:27;29.93;;;12.40;;
72060;SDS011;59925;52.136;5.420;2024-02-28T00:07:54;34.13;;;13.60;;
72060;SDS011;59925;52.136;5.420;2024-02-28T00:10:20;29.83;;;12.00;;
72060;SDS011;59925;52.136;5.420;2024-02-28T00:12:47;31.98;;;13.30;;
72060;SDS011;59925;52.136;5.420;2024-02-28T00:15:14;31.05;;;12.15;;
72060;SDS011;59925;52.136;5.420;2024-02-28T00:17:42;29.27;;;12.57;;
72060;SDS011;59925;52.136;5.420;2024-02-28T00:20:09;36.15;;;12.95;;
72060;SDS011;59925;52.136;5.420;2024-02-28T00:22:36;35.65;;;13.55;;
72060;SDS011;59925;52.136;5.420;2024-02-28T00:25:05;31.42;;;12.70;;
72060;SDS011;59925;52.136;5.420;2024-02-28T00:27:33;31.75;;;11.43;;
72060;SDS011;59925;52.136;5.420;2024-02-28T00:30:00;31.20;;;12.67;;
72060;SDS011;59925;52.136;5.420;2024-02-28T00:32:27;30.30;;;12.55;;
72060;SDS011;59925;52.136;5.420;2024-02-28T00:34:54;35.22;;;12.77;;
72060;SDS011;59925;52.136;5.420;2024-02-28T00:37:20;31.23;;;13.15;;
72060;SDS011;59925;52.136;5.420;2024-02-28T00:39:49;35.95;;;14.18;;
72060;SDS011;59925;52.136;5.420;2024-02-28T00:42:16;31.60;;;13.07;;
72060;SDS011;59925;52.136;5.420;2024-02-28T00:44:42;32.35;;;12.63;;
72060;SDS011;59925;52.136;5.420;2024-02-28T00:47:09;30.92;;;12.50;;
72060;SDS011;59925;52.136;5.420;2024-02-28T00:49:36;30.75;;;13.07;;
72060;SDS011;59925;52.136;5.420;2024-02-28T00:52:03;29.23;;;12.30;;
72060;SDS011;59925;52.136;5.420;2024-02-28T00:54:29;34.43;;;13.23;;
72060;SDS011;59925;52.136;5.420;2024-02-28T00:56:56;34.17;;;12.93;;
72060;SDS011;59925;52.136;5.420;2024-02-28T00:59:22;37.15;;;13.38;;
72060;SDS011;59925;52.136;5.420;2024-02-28T01:01:49;32.38;;;12.52;;
72060;SDS011;59925;52.136;5.420;2024-02-28T01:04:15;34.90;;;13.23;;
72060;SDS011;59925;52.136;5.420;2024-02-28T01:06:42;35.53;;;12.73;;
72060;SDS011;59925;52.136;5.420;2024-02-28T01:09:08;33.47;;;13.60;;
72060;SDS011;59925;52.136;5.420;2024-02-28T01:11:35;33.72;;;13.05;;
72060;SDS011;59925;52.136;5.420;2024-02-28T01:14:01;31.92;;;13.55;;
72060;SDS011;59925;52.136;5.420;2024-02-28T01:16:28;33.22;;;12.73;;
72060;SDS011;59925;52.136;5.420;2024-02-28T01:18:55;36.47;;;13.77;;
72060;SDS011;59925;52.136;5.420;2024-02-28T01:21:22;33.25;;;13.43;;
72060;SDS011;59925;52.136;5.420;2024-02-28T01:23:48;35.08;;;13.40;;
72060;SDS011;59925;52.136;5.420;2024-02-28T01:26:15;30.83;;;12.50;;
72060;SDS011;59925;52.136;5.420;2024-02-28T01:28:41;34.20;;;12.70;;
72060;SDS011;59925;52.136;5.420;2024-02-28T01:31:09;29.50;;;13.20;;
72060;SDS011;59925;52.136;5.420;2024-02-28T01:33:35;32.65;;;12.85;;
72060;SDS011;59925;52.136;5.420;2024-02-28T01:36:02;31.70;;;12.88;;
72060;SDS011;59925;52.136;5.420;2024-02-28T01:38:29;32.10;;;13.10;;
72060;SDS011;59925;52.136;5.420;2024-02-28T01:40:55;34.58;;;14.40;;
72060;SDS011;59925;52.136;5.420;2024-02-28T01:43:21;31.47;;;13.70;;
72060;SDS011;59925;52.136;5.420;2024-02-28T01:45:48;31.77;;;13.20;;
72060;SDS011;59925;52.136;5.420;2024-02-28T01:48:16;33.92;;;12.60;;
72060;SDS011;59925;52.136;5.420;2024-02-28T01:50:43;38.15;;;13.50;;
72060;SDS011;59925;52.136;5.420;2024-02-28T01:53:10;40.53;;;14.68;;
72060;SDS011;59925;52.136;5.420;2024-02-28T01:55:38;109.53;;;14.87;;
72060;SDS011;59925;52.136;5.420;2024-02-28T01:58:04;81.20;;;13.48;;
72060;SDS011;59925;52.136;5.420;2024-02-28T02:00:32;95.47;;;13.43;;
72060;SDS011;59925;52.136;5.420;2024-02-28T02:03:02;110.38;;;14.40;;
72060;SDS011;59925;52.136;5.420;2024-02-28T02:05:29;90.22;;;13.10;;
72060;SDS011;59925;52.136;5.420;2024-02-28T02:07:58;107.43;;;13.70;;
72060;SDS011;59925;52.136;5.420;2024-02-28T02:10:25;161.18;;;16.05;;
72060;SDS011;59925;52.136;5.420;2024-02-28T02:12:52;72.20;;;12.85;;
72060;SDS011;59925;52.136;5.420;2024-02-28T02:15:19;60.65;;;12.35;;
72060;SDS011;59925;52.136;5.420;2024-02-28T02:17:46;57.65;;;14.82;;
72060;SDS011;59925;52.136;5.420;2024-02-28T02:20:13;125.23;;;12.47;;
72060;SDS011;59925;52.136;5.420;2024-02-28T02:22:40;48.05;;;10.45;;
72060;SDS011;59925;52.136;5.420;2024-02-28T02:25:07;64.15;;;13.18;;
72060;SDS011;59925;52.136;5.420;2024-02-28T02:27:34;41.05;;;11.43;;
72060;SDS011;59925;52.136;5.420;2024-02-28T02:30:00;71.68;;;11.23;;
72060;SDS011;59925;52.136;5.420;2024-02-28T02:32:27;41.97;;;10.47;;
72060;SDS011;59925;52.136;5.420;2024-02-28T02:34:55;36.38;;;10.63;;
72060;SDS011;59925;52.136;5.420;2024-02-28T02:37:21;44.20;;;11.20;;
72060;SDS011;59925;52.136;5.420;2024-02-28T02:39:48;23.25;;;9.25;;
72060;SDS011;59925;52.136;5.420;2024-02-28T02:42:14;23.08;;;10.00;;
72060;SDS011;59925;52.136;5.420;2024-02-28T02:44:41;28.10;;;9.57;;
72060;SDS011;59925;52.136;5.420;2024-02-28T02:47:08;29.45;;;10.77;;
72060;SDS011;59925;52.136;5.420;2024-02-28T02:49:35;28.42;;;11.45;;
72060;SDS011;59925;52.136;5.420;2024-02-28T02:52:01;28.73;;;10.77;;
72060;SDS011;59925;52.136;5.420;2024-02-28T02:54:27;22.70;;;10.52;;
72060;SDS011;59925;52.136;5.420;2024-02-28T02:56:54;21.20;;;9.80;;
72060;SDS011;59925;52.136;5.420;2024-02-28T02:59:21;25.77;;;10.85;;
72060;SDS011;59925;52.136;5.420;2024-02-28T03:01:49;23.38;;;10.27;;
72060;SDS011;59925;52.136;5.420;2024-02-28T03:04:16;33.75;;;10.30;;
72060;SDS011;59925;52.136;5.420;2024-02-28T03:06:42;25.27;;;10.45;;
72060;SDS011;59925;52.136;5.420;2024-02-28T03:09:09;22.87;;;10.20;;
72060;SDS011;59925;52.136;5.420;2024-02-28T03:11:35;20.77;;;10.00;;
72060;SDS011;59925;52.136;5.420;2024-02-28T03:14:02;23.02;;;10.50;;
72060;SDS011;59925;52.136;5.420;2024-02-28T03:16:29;27.50;;;10.10;;
72060;SDS011;59925;52.136;5.420;2024-02-28T03:18:55;22.27;;;9.80;;
72060;SDS011;59925;52.136;5.420;2024-02-28T03:21:22;33.93;;;10.77;;
72060;SDS011;59925;52.136;5.420;2024-02-28T03:23:49;27.90;;;9.88;;
72060;SDS011;59925;52.136;5.420;2024-02-28T03:26:16;26.35;;;10.77;;
72060;SDS011;59925;52.136;5.420;2024-02-28T03:28:42;27.73;;;10.95;;
72060;SDS011;59925;52.136;5.420;2024-02-28T03:31:09;26.88;;;10.45;;
72060;SDS011;59925;52.136;5.420;2024-02-28T03:33:35;36.33;;;10.20;;
72060;SDS011;59925;52.136;5.420;2024-02-28T03:36:02;22.67;;;10.10;;
72060;SDS011;59925;52.136;5.420;2024-02-28T03:38:29;31.65;;;9.80;;
72060;SDS011;59925;52.136;5.420;2024-02-28T03:40:55;26.52;;;10.80;;
72060;SDS011;59925;52.136;5.420;2024-02-28T03:43:22;30.08;;;10.90;;
72060;SDS011;59925;52.136;5.420;2024-02-28T03:45:48;23.57;;;10.83;;
72060;SDS011;59925;52.136;5.420;2024-02-28T03:48:16;23.27;;;10.77;;
72060;SDS011;59925;52.136;5.420;2024-02-28T03:50:43;22.70;;;10.27;;
72060;SDS011;59925;52.136;5.420;2024-02-28T03:53:10;20.27;;;9.57;;
72060;SDS011;59925;52.136;5.420;2024-02-28T03:55:36;23.92;;;10.45;;
72060;SDS011;59925;52.136;5.420;2024-02-28T03:58:04;20.93;;;9.97;;
72060;SDS011;59925;52.136;5.420;2024-02-28T04:00:33;22.95;;;10.30;;
72060;SDS011;59925;52.136;5.420;2024-02-28T04:03:00;23.48;;;10.88;;
72060;SDS011;59925;52.136;5.420;2024-02-28T04:05:26;24.40;;;11.05;;
72060;SDS011;59925;52.136;5.420;2024-02-28T04:07:53;21.23;;;10.55;;
72060;SDS011;59925;52.136;5.420;2024-02-28T04:10:19;21.90;;;9.40;;
72060;SDS011;59925;52.136;5.420;2024-02-28T04:12:46;19.67;;;9.60;;
72060;SDS011;59925;52.136;5.420;2024-02-28T04:15:13;22.98;;;10.60;;
72060;SDS011;59925;52.136;5.420;2024-02-28T04:17:41;19.80;;;9.73;;
72060;SDS011;59925;52.136;5.420;2024-02-28T04:20:11;23.05;;;10.80;;
72060;SDS011;59925;52.136;5.420;2024-02-28T04:22:39;19.73;;;9.67;;
72060;SDS011;59925;52.136;5.420;2024-02-28T04:25:07;19.83;;;10.38;;
72060;SDS011;59925;52.136;5.420;2024-02-28T04:27:34;22.42;;;10.05;;
72060;SDS011;59925;52.136;5.420;2024-02-28T04:30:02;20.80;;;10.15;;
72060;SDS011;59925;52.136;5.420;2024-02-28T04:32:29;18.95;;;9.18;;
72060;SDS011;59925;52.136;5.420;2024-02-28T04:34:55;20.73;;;9.77;;
72060;SDS011;59925;52.136;5.420;2024-02-28T04:37:22;19.73;;;9.50;;
72060;SDS011;59925;52.136;5.420;2024-02-28T04:39:48;17.33;;;9.32;;
72060;SDS011;59925;52.136;5.420;2024-02-28T04:42:15;21.23;;;9.18;;
72060;SDS011;59925;52.136;5.420;2024-02-28T04:44:42;19.17;;;9.93;;
72060;SDS011;59925;52.136;5.420;2024-02-28T04:47:09;19.10;;;8.63;;
72060;SDS011;59925;52.136;5.420;2024-02-28T04:49:38;18.33;;;9.00;;
72060;SDS011;59925;52.136;5.420;2024-02-28T04:52:05;18.42;;;9.15;;
72060;SDS011;59925;52.136;5.420;2024-02-28T04:54:32;18.77;;;9.93;;
72060;SDS011;59925;52.136;5.420;2024-02-28T04:57:00;17.75;;;9.07;;
72060;SDS011;59925;52.136;5.420;2024-02-28T04:59:27;16.93;;;9.40;;
72060;SDS011;59925;52.136;5.420;2024-02-28T05:01:53;20.23;;;9.02;;
72060;SDS011;59925;52.136;5.420;2024-02-28T05:04:20;19.58;;;10.00;;
72060;SDS011;59925;52.136;5.420;2024-02-28T05:06:47;18.75;;;9.07;;
72060;SDS011;59925;52.136;5.420;2024-02-28T05:09:14;18.83;;;9.23;;
72060;SDS011;59925;52.136;5.420;2024-02-28T05:11:40;18.37;;;9.83;;
72060;SDS011;59925;52.136;5.420;2024-02-28T05:14:08;18.52;;;9.63;;
72060;SDS011;59925;52.136;5.420;2024-02-28T05:16:36;19.50;;;9.57;;
72060;SDS011;59925;52.136;5.420;2024-02-28T05:19:03;19.50;;;9.40;;
72060;SDS011;59925;52.136;5.420;2024-02-28T05:21:31;18.05;;;9.85;;
72060;SDS011;59925;52.136;5.420;2024-02-28T05:23:57;18.23;;;9.83;;
72060;SDS011;59925;52.136;5.420;2024-02-28T05:26:24;16.00;;;9.02;;
72060;SDS011;59925;52.136;5.420;2024-02-28T05:28:51;18.98;;;9.55;;
72060;SDS011;59925;52.136;5.420;2024-02-28T05:33:50;16.85;;;9.18;;
72060;SDS011;59925;52.136;5.420;2024-02-28T05:36:21;20.23;;;9.63;;
72060;SDS011;59925;52.136;5.420;2024-02-28T05:38:48;15.60;;;8.93;;
72060;SDS011;59925;52.136;5.420;2024-02-28T05:41:16;17.13;;;9.70;;
72060;SDS011;59925;52.136;5.420;2024-02-28T05:43:42;17.73;;;9.48;;
72060;SDS011;59925;52.136;5.420;2024-02-28T05:46:09;15.80;;;8.48;;
72060;SDS011;59925;52.136;5.420;2024-02-28T05:48:36;18.67;;;9.20;;
72060;SDS011;59925;52.136;5.420;2024-02-28T05:51:03;18.30;;;9.10;;
72060;SDS011;59925;52.136;5.420;2024-02-28T05:53:30;17.15;;;9.27;;
72060;SDS011;59925;52.136;5.420;2024-02-28T05:56:03;16.35;;;8.65;;
72060;SDS011;59925;52.136;5.420;2024-02-28T05:58:30;21.30;;;9.55;;
72060;SDS011;59925;52.136;5.420;2024-02-28T06:00:57;18.97;;;9.90;;
72060;SDS011;59925;52.136;5.420;2024-02-28T06:03:23;21.75;;;10.00;;
72060;SDS011;59925;52.136;5.420;2024-02-28T06:05:50;17.92;;;10.05;;
72060;SDS011;59925;52.136;5.420;2024-02-28T06:08:16;18.92;;;9.55;;
72060;SDS011;59925;52.136;5.420;2024-02-28T06:10:43;17.95;;;9.52;;
72060;SDS011;59925;52.136;5.420;2024-02-28T06:13:12;19.77;;;9.87;;
72060;SDS011;59925;52.136;5.420;2024-02-28T06:15:39;16.20;;;9.80;;
72060;SDS011;59925;52.136;5.420;2024-02-28T06:18:06;16.77;;;9.85;;
72060;SDS011;59925;52.136;5.420;2024-02-28T06:20:32;16.33;;;9.40;;
72060;SDS011;59925;52.136;5.420;2024-02-28T06:22:59;17.63;;;10.30;;
72060;SDS011;59925;52.136;5.420;2024-02-28T06:25:32;18.20;;;9.90;;
72060;SDS011;59925;52.136;5.420;2024-02-28T06:28:00;16.33;;;9.60;;
72060;SDS011;59925;52.136;5.420;2024-02-28T06:30:28;21.50;;;11.18;;
72060;SDS011;59925;52.136;5.420;2024-02-28T06:32:58;15.10;;;9.45;;
72060;SDS011;59925;52.136;5.420;2024-02-28T06:35:26;15.80;;;10.00;;
72060;SDS011;59925;52.136;5.420;2024-02-28T06:37:52;21.47;;;11.17;;
72060;SDS011;59925;52.136;5.420;2024-02-28T06:40:19;16.70;;;9.90;;
72060;SDS011;59925;52.136;5.420;2024-02-28T06:42:46;20.23;;;10.63;;
72060;SDS011;59925;52.136;5.420;2024-02-28T06:45:13;22.65;;;10.70;;
72060;SDS011;59925;52.136;5.420;2024-02-28T06:47:39;17.90;;;10.27;;
72060;SDS011;59925;52.136;5.420;2024-02-28T06:50:06;18.83;;;9.73;;
72060;SDS011;59925;52.136;5.420;2024-02-28T06:52:33;15.98;;;9.95;;
72060;SDS011;59925;52.136;5.420;2024-02-28T06:55:01;16.17;;;10.32;;
72060;SDS011;59925;52.136;5.420;2024-02-28T06:57:32;17.38;;;9.48;;
72060;SDS011;59925;52.136;5.420;2024-02-28T06:59:59;18.10;;;10.52;;
72060;SDS011;59925;52.136;5.420;2024-02-28T07:02:25;18.97;;;9.97;;
72060;SDS011;59925;52.136;5.420;2024-02-28T07:04:52;16.30;;;10.23;;
72060;SDS011;59925;52.136;5.420;2024-02-28T07:07:19;14.85;;;9.45;;
72060;SDS011;59925;52.136;5.420;2024-02-28T07:09:45;17.40;;;10.18;;
72060;SDS011;59925;52.136;5.420;2024-02-28T07:12:12;17.80;;;9.55;;
72060;SDS011;59925;52.136;5.420;2024-02-28T07:14:38;15.70;;;10.43;;
72060;SDS011;59925;52.136;5.420;2024-02-28T07:17:05;16.17;;;10.02;;
72060;SDS011;59925;52.136;5.420;2024-02-28T07:19:33;18.48;;;10.07;;
72060;SDS011;59925;52.136;5.420;2024-02-28T07:21:59;17.40;;;10.10;;
72060;SDS011;59925;52.136;5.420;2024-02-28T07:24:26;17.90;;;10.48;;
72060;SDS011;59925;52.136;5.420;2024-02-28T07:26:52;18.20;;;10.33;;
72060;SDS011;59925;52.136;5.420;2024-02-28T07:29:19;18.25;;;10.15;;
72060;SDS011;59925;52.136;5.420;2024-02-28T07:31:45;18.20;;;10.73;;
72060;SDS011;59925;52.136;5.420;2024-02-28T07:34:12;17.88;;;10.50;;
72060;SDS011;59925;52.136;5.420;2024-02-28T07:36:38;20.10;;;10.68;;
72060;SDS011;59925;52.136;5.420;2024-02-28T07:39:05;16.00;;;9.83;;
72060;SDS011;59925;52.136;5.420;2024-02-28T07:41:31;16.98;;;10.20;;
72060;SDS011;59925;52.136;5.420;2024-02-28T07:43:58;18.30;;;10.55;;
72060;SDS011;59925;52.136;5.420;2024-02-28T07:46:25;19.40;;;10.50;;
72060;SDS011;59925;52.136;5.420;2024-02-28T07:48:51;16.27;;;10.65;;
72060;SDS011;59925;52.136;5.420;2024-02-28T07:51:18;19.40;;;11.00;;
72060;SDS011;59925;52.136;5.420;2024-02-28T07:53:44;18.90;;;10.38;;
72060;SDS011;59925;52.136;5.420;2024-02-28T07:56:16;20.42;;;11.15;;
72060;SDS011;59925;52.136;5.420;2024-02-28T07:58:46;17.25;;;10.13;;
72060;SDS011;59925;52.136;5.420;2024-02-28T08:01:13;18.05;;;10.60;;
72060;SDS011;59925;52.136;5.420;2024-02-28T08:03:40;16.67;;;9.80;;
72060;SDS011;59925;52.136;5.420;2024-02-28T08:06:07;20.20;;;10.60;;
72060;SDS011;59925;52.136;5.420;2024-02-28T08:08:37;20.77;;;11.95;;
72060;SDS011;59925;52.136;5.420;2024-02-28T08:11:03;16.90;;;11.15;;
72060;SDS011;59925;52.136;5.420;2024-02-28T08:13:30;19.52;;;11.13;;
72060;SDS011;59925;52.136;5.420;2024-02-28T08:15:59;15.77;;;10.67;;
72060;SDS011;59925;52.136;5.420;2024-02-28T08:18:26;17.63;;;10.82;;
72060;SDS011;59925;52.136;5.420;2024-02-28T08:20:54;21.20;;;11.20;;
72060;SDS011;59925;52.136;5.420;2024-02-28T08:23:23;18.83;;;11.38;;
72060;SDS011;59925;52.136;5.420;2024-02-28T08:25:52;25.20;;;10.90;;
72060;SDS011;59925;52.136;5.420;2024-02-28T08:28:19;18.03;;;11.30;;
72060;SDS011;59925;52.136;5.420;2024-02-28T08:30:45;18.20;;;10.50;;
72060;SDS011;59925;52.136;5.420;2024-02-28T08:33:12;15.93;;;10.52;;
72060;SDS011;59925;52.136;5.420;2024-02-28T08:35:39;14.93;;;10.65;;
72060;SDS011;59925;52.136;5.420;2024-02-28T08:38:06;19.02;;;10.70;;
72060;SDS011;59925;52.136;5.420;2024-02-28T08:40:32;17.63;;;11.03;;
72060;SDS011;59925;52.136;5.420;2024-02-28T08:42:58;18.98;;;11.65;;
72060;SDS011;59925;52.136;5.420;2024-02-28T08:45:25;18.23;;;12.55;;
72060;SDS011;59925;52.136;5.420;2024-02-28T08:47:52;19.90;;;12.18;;
72060;SDS011;59925;52.136;5.420;2024-02-28T08:50:19;19.23;;;11.63;;
72060;SDS011;59925;52.136;5.420;2024-02-28T08:52:45;18.57;;;11.67;;
72060;SDS011;59925;52.136;5.420;2024-02-28T08:55:12;17.48;;;11.35;;
72060;SDS011;59925;52.136;5.420;2024-02-28T08:57:38;20.05;;;11.80;;
72060;SDS011;59925;52.136;5.420;2024-02-28T09:00:05;18.05;;;11.45;;
72060;SDS011;59925;52.136;5.420;2024-02-28T09:02:35;18.88;;;12.43;;
72060;SDS011;59925;52.136;5.420;2024-02-28T09:05:03;22.33;;;12.33;;
72060;SDS011;59925;52.136;5.420;2024-02-28T09:07:30;21.15;;;12.27;;
72060;SDS011;59925;52.136;5.420;2024-02-28T09:09:57;18.77;;;12.55;;
72060;SDS011;59925;52.136;5.420;2024-02-28T09:12:23;22.70;;;13.20;;
72060;SDS011;59925;52.136;5.420;2024-02-28T09:14:50;23.33;;;13.07;;
72060;SDS011;59925;52.136;5.420;2024-02-28T09:17:22;18.73;;;12.13;;
72060;SDS011;59925;52.136;5.420;2024-02-28T09:19:49;21.05;;;13.48;;
72060;SDS011;59925;52.136;5.420;2024-02-28T09:22:16;19.45;;;13.27;;
72060;SDS011;59925;52.136;5.420;2024-02-28T09:24:43;20.73;;;13.30;;
72060;SDS011;59925;52.136;5.420;2024-02-28T09:27:10;23.30;;;13.77;;
72060;SDS011;59925;52.136;5.420;2024-02-28T09:29:36;27.30;;;14.07;;
72060;SDS011;59925;52.136;5.420;2024-02-28T09:32:03;26.75;;;14.68;;
72060;SDS011;59925;52.136;5.420;2024-02-28T09:34:30;24.00;;;14.82;;
72060;SDS011;59925;52.136;5.420;2024-02-28T09:36:57;24.73;;;15.45;;
72060;SDS011;59925;52.136;5.420;2024-02-28T09:39:23;23.40;;;14.43;;
72060;SDS011;59925;52.136;5.420;2024-02-28T09:41:50;26.27;;;14.73;;
72060;SDS011;59925;52.136;5.420;2024-02-28T09:44:16;22.90;;;14.57;;
72060;SDS011;59925;52.136;5.420;2024-02-28T09:46:44;23.38;;;14.52;;
72060;SDS011;59925;52.136;5.420;2024-02-28T09:49:11;24.65;;;14.38;;
72060;SDS011;59925;52.136;5.420;2024-02-28T09:51:39;25.25;;;15.70;;
72060;SDS011;59925;52.136;5.420;2024-02-28T09:54:06;23.33;;;14.60;;
72060;SDS011;59925;52.136;5.420;2024-02-28T09:56:33;24.35;;;14.13;;
72060;SDS011;59925;52.136;5.420;2024-02-28T09:58:59;20.70;;;14.15;;
72060;SDS011;59925;52.136;5.420;2024-02-28T10:01:29;22.13;;;13.77;;
72060;SDS011;59925;52.136;5.420;2024-02-28T10:03:56;25.83;;;13.93;;
72060;SDS011;59925;52.136;5.420;2024-02-28T10:06:23;19.80;;;13.47;;
72060;SDS011;59925;52.136;5.420;2024-02-28T10:08:50;24.75;;;13.43;;
72060;SDS011;59925;52.136;5.420;2024-02-28T10:11:21;21.33;;;13.15;;
72060;SDS011;59925;52.136;5.420;2024-02-28T10:13:49;21.88;;;13.25;;
72060;SDS011;59925;52.136;5.420;2024-02-28T10:16:16;22.10;;;13.98;;
72060;SDS011;59925;52.136;5.420;2024-02-28T10:18:43;21.00;;;13.03;;
72060;SDS011;59925;52.136;5.420;2024-02-28T10:21:10;25.73;;;12.57;;
72060;SDS011;59925;52.136;5.420;2024-02-28T10:23:41;20.90;;;13.90;;
72060;SDS011;59925;52.136;5.420;2024-02-28T10:26:11;19.02;;;12.85;;
72060;SDS011;59925;52.136;5.420;2024-02-28T10:28:38;18.92;;;12.93;;
72060;SDS011;59925;52.136;5.420;2024-02-28T10:31:07;19.53;;;12.97;;
72060;SDS011;59925;52.136;5.420;2024-02-28T10:33:34;22.30;;;13.77;;
72060;SDS011;59925;52.136;5.420;2024-02-28T10:36:02;21.48;;;13.63;;
72060;SDS011;59925;52.136;5.420;2024-02-28T10:38:30;19.83;;;12.77;;
72060;SDS011;59925;52.136;5.420;2024-02-28T10:41:02;25.02;;;13.65;;
72060;SDS011;59925;52.136;5.420;2024-02-28T10:43:29;26.00;;;14.67;;
72060;SDS011;59925;52.136;5.420;2024-02-28T10:46:00;19.92;;;12.93;;
72060;SDS011;59925;52.136;5.420;2024-02-28T10:48:29;18.73;;;13.02;;
72060;SDS011;59925;52.136;5.420;2024-02-28T10:50:56;22.98;;;13.05;;
72060;SDS011;59925;52.136;5.420;2024-02-28T10:53:29;23.27;;;14.38;;
72060;SDS011;59925;52.136;5.420;2024-02-28T10:56:02;20.43;;;12.60;;
72060;SDS011;59925;52.136;5.420;2024-02-28T10:58:33;21.30;;;13.70;;
72060;SDS011;59925;52.136;5.420;2024-02-28T11:01:02;21.90;;;14.27;;
72060;SDS011;59925;52.136;5.420;2024-02-28T11:03:30;26.20;;;16.10;;
72060;SDS011;59925;52.136;5.420;2024-02-28T11:05:57;21.45;;;14.18;;
72060;SDS011;59925;52.136;5.420;2024-02-28T11:08:24;22.43;;;14.47;;
72060;SDS011;59925;52.136;5.420;2024-02-28T11:10:57;23.60;;;14.98;;
72060;SDS011;59925;52.136;5.420;2024-02-28T11:13:26;27.33;;;15.23;;
72060;SDS011;59925;52.136;5.420;2024-02-28T11:15:54;25.95;;;15.05;;
72060;SDS011;59925;52.136;5.420;2024-02-28T11:18:23;22.40;;;14.25;;
72060;SDS011;59925;52.136;5.420;2024-02-28T11:20:50;29.03;;;15.00;;
72060;SDS011;59925;52.136;5.420;2024-02-28T11:23:17;26.63;;;14.80;;
72060;SDS011;59925;52.136;5.420;2024-02-28T11:25:44;25.20;;;14.00;;
72060;SDS011;59925;52.136;5.420;2024-02-28T11:28:10;25.48;;;15.55;;
72060;SDS011;59925;52.136;5.420;2024-02-28T11:30:37;23.48;;;13.95;;
72060;SDS011;59925;52.136;5.420;2024-02-28T11:33:03;22.70;;;14.03;;
72060;SDS011;59925;52.136;5.420;2024-02-28T11:35:32;27.05;;;15.02;;
72060;SDS011;59925;52.136;5.420;2024-02-28T11:37:59;24.08;;;13.70;;
72060;SDS011;59925;52.136;5.420;2024-02-28T11:40:25;22.20;;;13.45;;
72060;SDS011;59925;52.136;5.420;2024-02-28T11:42:53;23.00;;;13.52;;
72060;SDS011;59925;52.136;5.420;2024-02-28T11:45:21;24.80;;;14.73;;
72060;SDS011;59925;52.136;5.420;2024-02-28T11:47:48;22.20;;;13.32;;
72060;SDS011;59925;52.136;5.420;2024-02-28T11:50:15;23.27;;;13.30;;
72060;SDS011;59925;52.136;5.420;2024-02-28T11:52:42;24.95;;;14.80;;
72060;SDS011;59925;52.136;5.420;2024-02-28T11:55:08;24.45;;;13.95;;
72060;SDS011;59925;52.136;5.420;2024-02-28T11:57:36;22.63;;;13.83;;
72060;SDS011;59925;52.136;5.420;2024-02-28T12:00:06;22.80;;;13.35;;
72060;SDS011;59925;52.136;5.420;2024-02-28T12:02:34;22.50;;;13.80;;
72060;SDS011;59925;52.136;5.420;2024-02-28T12:05:02;26.10;;;13.93;;
72060;SDS011;59925;52.136;5.420;2024-02-28T12:07:31;24.58;;;13.93;;
72060;SDS011;59925;52.136;5.420;2024-02-28T12:09:58;25.87;;;13.93;;
72060;SDS011;59925;52.136;5.420;2024-02-28T12:12:29;29.48;;;14.10;;
72060;SDS011;59925;52.136;5.420;2024-02-28T12:14:59;21.67;;;13.32;;
72060;SDS011;59925;52.136;5.420;2024-02-28T12:17:26;26.42;;;14.75;;
72060;SDS011;59925;52.136;5.420;2024-02-28T12:19:53;24.48;;;13.77;;
72060;SDS011;59925;52.136;5.420;2024-02-28T12:22:21;25.50;;;13.07;;
72060;SDS011;59925;52.136;5.420;2024-02-28T12:24:48;24.95;;;13.18;;
72060;SDS011;59925;52.136;5.420;2024-02-28T12:27:15;25.63;;;13.25;;
72060;SDS011;59925;52.136;5.420;2024-02-28T12:29:41;25.70;;;13.13;;
72060;SDS011;59925;52.136;5.420;2024-02-28T12:32:08;23.58;;;12.30;;
72060;SDS011;59925;52.136;5.420;2024-02-28T12:34:35;23.87;;;12.63;;
72060;SDS011;59925;52.136;5.420;2024-02-28T12:37:02;21.65;;;12.55;;
72060;SDS011;59925;52.136;5.420;2024-02-28T12:39:30;21.25;;;11.77;;
72060;SDS011;59925;52.136;5.420;2024-02-28T12:42:00;21.40;;;11.93;;
72060;SDS011;59925;52.136;5.420;2024-02-28T12:44:27;20.98;;;12.05;;
72060;SDS011;59925;52.136;5.420;2024-02-28T12:46:53;24.67;;;12.97;;
72060;SDS011;59925;52.136;5.420;2024-02-28T12:49:20;20.67;;;11.43;;
72060;SDS011;59925;52.136;5.420;2024-02-28T12:51:46;21.25;;;12.18;;
72060;SDS011;59925;52.136;5.420;2024-02-28T12:54:15;20.42;;;12.18;;
72060;SDS011;59925;52.136;5.420;2024-02-28T12:56:41;24.27;;;12.30;;
72060;SDS011;59925;52.136;5.420;2024-02-28T12:59:11;22.83;;;11.50;;
72060;SDS011;59925;52.136;5.420;2024-02-28T13:01:38;23.20;;;13.20;;
72060;SDS011;59925;52.136;5.420;2024-02-28T13:04:05;23.20;;;11.70;;
72060;SDS011;59925;52.136;5.420;2024-02-28T13:06:32;25.42;;;12.85;;
72060;SDS011;59925;52.136;5.420;2024-02-28T13:08:59;24.08;;;12.93;;
72060;SDS011;59925;52.136;5.420;2024-02-28T13:11:25;20.10;;;11.70;;
72060;SDS011;59925;52.136;5.420;2024-02-28T13:13:52;19.90;;;11.10;;
72060;SDS011;59925;52.136;5.420;2024-02-28T13:16:19;20.38;;;11.13;;
72060;SDS011;59925;52.136;5.420;2024-02-28T13:18:46;21.92;;;12.25;;
72060;SDS011;59925;52.136;5.420;2024-02-28T13:21:13;21.77;;;12.05;;
72060;SDS011;59925;52.136;5.420;2024-02-28T13:23:40;21.97;;;11.43;;
72060;SDS011;59925;52.136;5.420;2024-02-28T13:26:06;20.33;;;11.68;;
72060;SDS011;59925;52.136;5.420;2024-02-28T13:28:33;23.42;;;12.43;;
72060;SDS011;59925;52.136;5.420;2024-02-28T13:31:02;21.35;;;11.32;;
72060;SDS011;59925;52.136;5.420;2024-02-28T13:33:32;21.20;;;12.13;;
72060;SDS011;59925;52.136;5.420;2024-02-28T13:35:59;19.40;;;11.47;;
72060;SDS011;59925;52.136;5.420;2024-02-28T13:38:26;19.98;;;12.02;;
72060;SDS011;59925;52.136;5.420;2024-02-28T13:40:52;18.55;;;11.95;;
72060;SDS011;59925;52.136;5.420;2024-02-28T13:43:19;21.25;;;12.88;;
72060;SDS011;59925;52.136;5.420;2024-02-28T13:45:46;19.88;;;11.80;;
72060;SDS011;59925;52.136;5.420;2024-02-28T13:48:17;19.03;;;11.60;;
72060;SDS011;59925;52.136;5.420;2024-02-28T13:50:47;20.30;;;11.98;;
72060;SDS011;59925;52.136;5.420;2024-02-28T13:53:14;20.30;;;12.27;;
72060;SDS011;59925;52.136;5.420;2024-02-28T13:55:42;18.98;;;12.05;;
72060;SDS011;59925;52.136;5.420;2024-02-28T13:58:10;23.15;;;12.98;;
72060;SDS011;59925;52.136;5.420;2024-02-28T14:00:37;20.70;;;11.53;;
72060;SDS011;59925;52.136;5.420;2024-02-28T14:03:05;21.00;;;11.65;;
72060;SDS011;59925;52.136;5.420;2024-02-28T14:05:35;23.23;;;11.90;;
72060;SDS011;59925;52.136;5.420;2024-02-28T14:08:02;19.25;;;11.65;;
72060;SDS011;59925;52.136;5.420;2024-02-28T14:10:30;20.88;;;12.70;;
72060;SDS011;59925;52.136;5.420;2024-02-28T14:12:57;20.33;;;12.70;;
72060;SDS011;59925;52.136;5.420;2024-02-28T14:15:24;21.30;;;12.82;;
72060;SDS011;59925;52.136;5.420;2024-02-28T14:17:54;20.67;;;13.13;;
72060;SDS011;59925;52.136;5.420;2024-02-28T14:20:21;22.38;;;14.15;;
72060;SDS011;59925;52.136;5.420;2024-02-28T14:22:48;21.02;;;12.65;;
72060;SDS011;59925;52.136;5.420;2024-02-28T14:25:16;21.43;;;12.70;;